createdAt,value
2019-03-25T00:01:21.691Z,44.20
2019-03-25T00:04:13.214Z,40.27
2019-03-25T00:07:04.411Z,46.23
2019-03-25T00:09:55.973Z,39.33
2019-03-25T00:12:47.471Z,46.60
2019-03-25T00:15:40.306Z,42.23
2019-03-25T00:18:32.411Z,38.37
2019-03-25T00:21:23.874Z,45.07
2019-03-25T00:24:15.129Z,42.93
2019-03-25T00:27:06.912Z,42.33
2019-03-25T00:29:57.898Z,42.30
2019-03-25T00:32:49.372Z,46.83
2019-03-25T00:35:42.255Z,44.77
2019-03-25T00:38:33.090Z,44.43
2019-03-25T00:41:24.271Z,39.80
2019-03-25T00:44:15.593Z,45.83
2019-03-25T00:47:07.613Z,40.80
2019-03-25T00:49:58.551Z,43.00
2019-03-25T00:52:50.351Z,43.50
2019-03-25T00:55:41.571Z,43.57
2019-03-25T00:58:33.685Z,43.23
2019-03-25T01:01:24.991Z,53.43
2019-03-25T01:04:16.409Z,48.67
2019-03-25T01:07:07.551Z,41.47
2019-03-25T01:09:59.554Z,48.93
2019-03-25T01:12:50.811Z,49.13
2019-03-25T01:15:42.634Z,43.90
2019-03-25T01:18:34.211Z,51.53
2019-03-25T01:21:26.491Z,42.83
2019-03-25T01:24:18.031Z,46.07
2019-03-25T01:27:10.811Z,46.63
2019-03-25T01:30:02.032Z,42.70
2019-03-25T01:32:53.851Z,44.47
2019-03-25T01:35:46.012Z,43.30
2019-03-25T01:38:36.931Z,52.43
2019-03-25T01:41:27.971Z,47.00
2019-03-25T01:44:19.895Z,47.90
2019-03-25T01:47:12.091Z,50.43
2019-03-25T01:50:02.667Z,43.67
2019-03-25T01:52:53.851Z,46.30
2019-03-25T01:55:45.371Z,41.70
2019-03-25T01:58:36.651Z,46.27
2019-03-25T02:01:27.871Z,51.57
2019-03-25T02:04:19.291Z,42.73
2019-03-25T02:07:11.031Z,47.10
2019-03-25T02:10:02.972Z,46.53
2019-03-25T02:12:54.814Z,47.73
2019-03-25T02:15:46.991Z,45.50
2019-03-25T02:18:37.871Z,45.53
2019-03-25T02:21:30.031Z,44.30
2019-03-25T02:24:21.277Z,46.93
2019-03-25T02:29:34.811Z,56.10
2019-03-25T02:32:26.717Z,48.53
2019-03-25T02:35:17.596Z,53.87
2019-03-25T02:38:08.659Z,43.27
2019-03-25T02:41:00.331Z,49.57
2019-03-25T02:43:51.471Z,45.53
2019-03-25T02:46:42.351Z,52.67
2019-03-25T02:49:32.879Z,50.60
2019-03-25T02:52:23.776Z,46.30
2019-03-25T02:55:14.562Z,39.43
2019-03-25T02:58:06.094Z,49.50
2019-03-25T03:04:29.714Z,49.70
2019-03-25T03:07:20.974Z,43.03
2019-03-25T03:10:13.012Z,50.10
2019-03-25T03:13:04.667Z,46.43
2019-03-25T03:15:55.892Z,53.20
2019-03-25T03:18:47.451Z,48.83
2019-03-25T03:21:38.992Z,46.40
2019-03-25T03:24:33.173Z,41.40
2019-03-25T03:27:24.251Z,45.77
2019-03-25T03:30:16.418Z,40.67
2019-03-25T03:33:08.100Z,53.13
2019-03-25T03:35:58.886Z,42.47
2019-03-25T03:38:50.052Z,53.40
2019-03-25T03:41:41.533Z,37.20
2019-03-25T03:44:34.584Z,47.07
2019-03-25T03:47:26.312Z,46.67
2019-03-25T03:50:26.977Z,46.07
2019-03-25T03:53:19.665Z,49.53
2019-03-25T03:56:14.215Z,47.27
2019-03-25T03:59:05.631Z,52.60
2019-03-25T04:01:56.572Z,49.60
2019-03-25T04:04:48.379Z,45.20
2019-03-25T04:07:39.951Z,54.67
2019-03-25T04:10:30.816Z,42.67
2019-03-25T04:13:21.711Z,49.07
2019-03-25T04:16:12.667Z,45.50
2019-03-25T04:19:04.114Z,49.37
2019-03-25T04:21:55.258Z,43.30
2019-03-25T04:24:46.512Z,47.30
2019-03-25T04:27:39.054Z,48.40
2019-03-25T04:30:31.064Z,53.03
2019-03-25T04:33:22.637Z,50.53
2019-03-25T04:36:14.551Z,46.37
2019-03-25T04:39:07.508Z,42.73
2019-03-25T04:41:59.191Z,54.60
2019-03-25T04:44:50.855Z,43.30
2019-03-25T04:47:42.411Z,40.97
2019-03-25T04:50:35.173Z,44.67
2019-03-25T04:53:26.631Z,51.17
2019-03-25T04:56:18.070Z,51.50
2019-03-25T04:59:10.893Z,49.10
2019-03-25T05:02:04.892Z,43.90
2019-03-25T05:04:56.292Z,42.50
2019-03-25T05:07:47.648Z,44.17
2019-03-25T05:10:39.448Z,51.50
2019-03-25T05:13:31.292Z,45.10
2019-03-25T05:16:22.811Z,50.80
2019-03-25T05:19:14.639Z,45.87
2019-03-25T05:22:06.191Z,43.17
2019-03-25T05:24:58.070Z,47.37
2019-03-25T05:27:49.571Z,48.10
2019-03-25T05:30:41.371Z,48.87
2019-03-25T05:33:33.231Z,51.90
2019-03-25T05:36:25.151Z,49.53
2019-03-25T05:39:16.848Z,47.57
2019-03-25T05:42:08.431Z,45.53
2019-03-25T05:45:00.591Z,45.73
2019-03-25T05:47:51.771Z,51.97
2019-03-25T05:50:43.333Z,43.23
2019-03-25T05:53:36.734Z,38.90
2019-03-25T05:56:28.240Z,46.73
2019-03-25T05:59:19.211Z,48.20
2019-03-25T06:02:10.491Z,48.23
2019-03-25T06:05:01.814Z,47.47
2019-03-25T06:07:52.871Z,51.13
2019-03-25T06:10:45.156Z,46.17
2019-03-25T06:13:38.072Z,42.33
2019-03-25T06:16:29.871Z,29.53
2019-03-25T06:19:21.731Z,36.10
2019-03-25T06:22:13.552Z,37.17
2019-03-25T06:25:05.138Z,28.40
2019-03-25T06:27:56.592Z,37.53
2019-03-25T06:30:48.031Z,29.57
2019-03-25T06:33:39.651Z,32.83
2019-03-25T06:36:30.811Z,33.10
2019-03-25T06:39:22.371Z,34.43
2019-03-25T06:42:13.724Z,39.67
2019-03-25T06:45:05.072Z,31.87
2019-03-25T06:47:56.251Z,32.13
2019-03-25T06:50:47.932Z,34.73
2019-03-25T06:53:39.291Z,30.80
2019-03-25T06:56:30.830Z,33.37
2019-03-25T06:59:22.165Z,34.60
2019-03-25T07:02:13.892Z,37.80
2019-03-25T07:05:06.011Z,36.37
2019-03-25T07:07:58.171Z,35.03
2019-03-25T07:10:49.651Z,31.50
2019-03-25T07:13:40.610Z,29.83
2019-03-25T07:16:31.871Z,33.37
2019-03-25T07:19:22.719Z,31.83
2019-03-25T07:22:14.051Z,31.07
2019-03-25T07:25:05.451Z,32.23
2019-03-25T07:27:57.007Z,31.50
2019-03-25T07:30:49.121Z,31.73
2019-03-25T07:33:41.631Z,27.83
2019-03-25T07:36:33.192Z,26.63
2019-03-25T07:39:24.071Z,29.03
2019-03-25T07:42:15.151Z,31.60
2019-03-25T07:45:05.886Z,28.20
2019-03-25T07:47:59.131Z,34.93
2019-03-25T07:50:50.004Z,26.17
2019-03-25T07:53:42.191Z,28.50
2019-03-25T07:56:33.492Z,23.73
2019-03-25T07:59:24.843Z,27.53
2019-03-25T08:02:16.055Z,19.23
2019-03-25T08:05:07.931Z,19.80
2019-03-25T08:07:58.902Z,17.07
2019-03-25T08:10:50.345Z,19.27
2019-03-25T08:13:42.040Z,18.00
2019-03-25T08:16:33.374Z,20.33
2019-03-25T08:19:25.331Z,16.67
2019-03-25T08:22:17.051Z,26.47
2019-03-25T08:25:08.999Z,22.80
2019-03-25T08:28:00.827Z,22.77
2019-03-25T08:30:54.672Z,17.47
2019-03-25T08:33:46.231Z,26.70
2019-03-25T08:36:37.854Z,29.13
2019-03-25T08:39:29.191Z,20.70
2019-03-25T08:42:20.211Z,18.33
2019-03-25T08:45:12.113Z,18.53
2019-03-25T08:48:03.179Z,19.83
2019-03-25T08:50:54.584Z,17.63
2019-03-25T08:53:45.610Z,19.70
2019-03-25T08:56:36.573Z,19.73
2019-03-25T08:59:27.298Z,14.23
2019-03-25T09:02:17.911Z,15.10
2019-03-25T09:05:09.651Z,14.73
2019-03-25T09:08:01.793Z,17.63
2019-03-25T09:10:52.991Z,19.00
2019-03-25T09:13:44.173Z,20.10
2019-03-25T09:16:35.932Z,19.10
2019-03-25T09:19:27.351Z,19.13
2019-03-25T09:22:18.871Z,15.83
2019-03-25T09:25:10.491Z,25.17
2019-03-25T09:28:02.019Z,17.63
2019-03-25T09:31:22.511Z,19.00
2019-03-25T09:34:14.172Z,15.63
2019-03-25T09:37:05.691Z,19.60
2019-03-25T09:39:57.211Z,14.80
2019-03-25T09:42:48.277Z,16.77
2019-03-25T09:45:39.731Z,17.77
2019-03-25T09:48:31.054Z,17.77
2019-03-25T09:51:22.432Z,15.40
2019-03-25T09:54:13.732Z,16.10
2019-03-25T09:57:05.711Z,14.27
2019-03-25T09:59:56.551Z,14.33
2019-03-25T10:02:48.091Z,13.50
2019-03-25T10:05:39.292Z,14.30
2019-03-25T10:08:30.811Z,14.70
2019-03-25T10:11:23.798Z,16.93
2019-03-25T10:14:15.130Z,15.93
2019-03-25T10:17:06.462Z,16.97
2019-03-25T10:19:57.292Z,17.87
2019-03-25T10:22:48.111Z,20.27
2019-03-25T10:25:39.611Z,16.00
2019-03-25T10:28:30.441Z,19.33
2019-03-25T10:31:24.589Z,20.80
2019-03-25T10:34:15.493Z,22.73
2019-03-25T10:37:07.459Z,15.13
2019-03-25T10:39:58.630Z,22.57
2019-03-25T10:42:49.891Z,19.97
2019-03-25T10:45:40.923Z,17.83
2019-03-25T10:48:31.884Z,20.27
2019-03-25T10:51:23.337Z,20.53
2019-03-25T10:54:15.277Z,23.73
2019-03-25T10:57:07.292Z,32.40
2019-03-25T10:59:58.091Z,19.70
2019-03-25T11:02:51.532Z,27.70
2019-03-25T11:05:41.771Z,24.43
2019-03-25T11:08:32.919Z,24.40
2019-03-25T11:11:24.311Z,25.73
2019-03-25T11:14:15.770Z,18.93
2019-03-25T11:17:08.910Z,19.90
2019-03-25T11:19:59.970Z,21.53
2019-03-25T11:22:50.696Z,21.67
2019-03-25T11:25:43.011Z,17.13
2019-03-25T11:28:34.011Z,21.43
2019-03-25T11:31:25.542Z,22.53
2019-03-25T11:34:16.410Z,21.47
2019-03-25T11:37:06.951Z,19.03
2019-03-25T11:39:58.511Z,14.00
2019-03-25T11:42:49.686Z,14.87
2019-03-25T11:45:40.930Z,12.13
2019-03-25T11:48:32.470Z,9.53
2019-03-25T11:51:23.293Z,15.13
2019-03-25T11:54:14.592Z,16.37
2019-03-25T11:57:07.290Z,24.77
2019-03-25T11:59:58.290Z,14.33
2019-03-25T12:02:49.690Z,15.33
2019-03-25T12:05:40.762Z,17.33
2019-03-25T12:08:32.426Z,13.03
2019-03-25T12:11:23.762Z,16.80
2019-03-25T12:14:14.714Z,8.53
2019-03-25T12:17:06.353Z,10.90
2019-03-25T12:19:57.341Z,13.73
2019-03-25T12:22:48.551Z,12.90
2019-03-25T12:25:40.133Z,9.00
2019-03-25T12:28:31.852Z,7.27
2019-03-25T12:31:23.320Z,8.13
2019-03-25T12:34:14.833Z,7.90
2019-03-25T12:37:06.082Z,5.27
2019-03-25T12:39:57.757Z,4.23
2019-03-25T12:42:48.611Z,15.43
2019-03-25T12:45:39.932Z,7.70
2019-03-25T12:48:31.830Z,7.63
2019-03-25T12:51:22.811Z,5.63
2019-03-25T12:54:14.271Z,4.43
2019-03-25T12:57:06.011Z,5.90
2019-03-25T12:59:57.271Z,4.67
2019-03-25T13:02:48.490Z,4.47
2019-03-25T13:05:40.292Z,5.77
2019-03-25T13:08:33.332Z,4.43
2019-03-25T13:11:24.448Z,4.23
2019-03-25T13:14:15.791Z,7.73
2019-03-25T13:17:06.970Z,6.73
2019-03-25T13:19:58.491Z,3.73
2019-03-25T13:22:49.902Z,6.43
2019-03-25T13:25:40.986Z,5.33
2019-03-25T13:28:32.672Z,5.60
2019-03-25T13:31:23.931Z,4.43
2019-03-25T13:34:15.807Z,7.07
2019-03-25T13:37:07.372Z,4.87
2019-03-25T13:39:58.196Z,7.63
2019-03-25T13:42:49.725Z,7.00
2019-03-25T13:45:41.029Z,4.17
2019-03-25T13:48:31.213Z,7.03
2019-03-25T13:51:22.555Z,7.83
2019-03-25T13:54:13.786Z,4.67
2019-03-25T13:57:05.371Z,8.43
2019-03-25T14:00:03.316Z,5.40
2019-03-25T14:02:49.272Z,4.73
2019-03-25T14:05:40.912Z,3.30
2019-03-25T14:08:33.111Z,8.57
2019-03-25T14:11:26.151Z,4.73
2019-03-25T14:14:17.589Z,4.00
2019-03-25T14:17:09.595Z,2.90
2019-03-25T14:20:01.076Z,3.63
2019-03-25T14:22:52.285Z,3.93
2019-03-25T14:25:43.441Z,3.47
2019-03-25T14:28:35.339Z,2.27
2019-03-25T14:31:26.131Z,8.03
2019-03-25T14:34:17.391Z,6.10
2019-03-25T14:37:08.910Z,2.30
2019-03-25T14:40:01.071Z,2.83
2019-03-25T14:42:52.421Z,5.30
2019-03-25T14:45:43.743Z,5.40
2019-03-25T14:48:34.651Z,2.17
2019-03-25T14:51:26.583Z,2.50
2019-03-25T14:54:18.866Z,12.60
2019-03-25T14:57:10.132Z,2.50
2019-03-25T15:00:01.397Z,6.63
2019-03-25T15:02:53.591Z,2.17
2019-03-25T15:05:44.380Z,4.93
2019-03-25T15:08:35.931Z,6.23
2019-03-25T15:11:26.611Z,3.90
2019-03-25T15:14:18.251Z,3.60
2019-03-25T15:17:10.175Z,2.57
2019-03-25T15:20:01.173Z,1.73
2019-03-25T15:22:52.081Z,4.13
2019-03-25T15:25:43.452Z,1.60
2019-03-25T15:28:35.431Z,1.37
2019-03-25T15:31:26.851Z,2.57
2019-03-25T15:34:18.571Z,3.03
2019-03-25T15:37:10.490Z,3.40
2019-03-25T15:40:01.892Z,1.83
2019-03-25T15:42:54.511Z,1.80
2019-03-25T15:45:45.711Z,1.60
2019-03-25T15:48:38.452Z,5.10
2019-03-25T15:51:29.811Z,1.33
2019-03-25T15:54:21.749Z,28.33
2019-03-25T15:57:13.374Z,5.60
2019-03-25T16:00:05.258Z,1.57
2019-03-25T16:02:57.216Z,3.03
2019-03-25T16:05:48.311Z,2.93
2019-03-25T16:08:39.770Z,1.90
2019-03-25T16:11:31.092Z,2.43
2019-03-25T16:14:22.921Z,1.50
2019-03-25T16:17:13.653Z,1.33
2019-03-25T16:20:05.854Z,1.07
2019-03-25T16:22:57.089Z,1.70
2019-03-25T16:25:48.737Z,1.30
2019-03-25T16:28:39.731Z,1.10
2019-03-25T16:31:31.291Z,2.23
2019-03-25T16:34:22.591Z,1.03
2019-03-25T16:37:14.051Z,1.33
2019-03-25T16:40:05.531Z,1.40
2019-03-25T16:42:56.718Z,3.83
2019-03-25T16:45:48.251Z,3.43
2019-03-25T16:48:40.431Z,5.57
2019-03-25T16:51:31.930Z,4.30
2019-03-25T16:54:23.991Z,1.67
2019-03-25T16:57:16.004Z,5.13
2019-03-25T17:00:07.251Z,1.57
2019-03-25T17:02:58.451Z,0.77
2019-03-25T17:05:49.099Z,4.13
2019-03-25T17:08:40.793Z,5.20
2019-03-25T17:11:31.407Z,1.27
2019-03-25T17:14:22.213Z,1.93
2019-03-25T17:17:14.754Z,1.10
2019-03-25T17:20:05.593Z,2.20
2019-03-25T17:22:56.972Z,1.20
2019-03-25T17:25:52.943Z,0.97
2019-03-25T17:28:42.336Z,0.80
2019-03-25T17:31:33.851Z,1.27
2019-03-25T17:34:24.752Z,1.30
2019-03-25T17:37:17.455Z,1.10
2019-03-25T17:40:10.054Z,2.30
2019-03-25T17:43:03.471Z,3.57
2019-03-25T17:45:54.763Z,1.13
2019-03-25T17:48:45.996Z,0.93
2019-03-25T17:51:37.416Z,1.17
2019-03-25T17:54:29.212Z,2.27
2019-03-25T17:57:20.618Z,3.60
2019-03-25T18:00:14.298Z,2.13
2019-03-25T18:03:11.040Z,1.33
2019-03-25T18:05:58.491Z,1.03
2019-03-25T18:08:50.252Z,1.63
2019-03-25T18:11:40.792Z,1.57
2019-03-25T18:14:32.969Z,3.83
2019-03-25T18:17:24.942Z,2.90
2019-03-25T18:20:18.824Z,1.20
2019-03-25T18:23:09.248Z,2.00
2019-03-25T18:26:00.456Z,1.10
2019-03-25T18:28:51.171Z,4.53
2019-03-25T18:31:43.749Z,3.03
2019-03-25T18:34:37.235Z,1.70
2019-03-25T18:37:28.573Z,1.13
2019-03-25T18:40:19.631Z,1.80
2019-03-25T18:43:11.814Z,1.50
2019-03-25T18:46:03.182Z,1.50
2019-03-25T18:48:54.861Z,1.23
2019-03-25T18:51:46.811Z,1.03
2019-03-25T18:54:38.332Z,4.03
2019-03-25T18:57:29.651Z,7.83
2019-03-25T19:00:34.934Z,2.40
2019-03-25T19:03:25.923Z,3.97
2019-03-25T19:06:18.678Z,2.10
2019-03-25T19:09:14.451Z,4.23
2019-03-25T19:12:06.216Z,3.17
2019-03-25T19:14:59.121Z,2.27
2019-03-25T19:17:50.646Z,2.30
2019-03-25T19:20:42.379Z,2.50
2019-03-25T19:23:35.151Z,3.37
2019-03-25T19:26:27.238Z,5.57
2019-03-25T19:29:19.433Z,2.00
2019-03-25T19:32:11.850Z,1.97
2019-03-25T19:35:07.392Z,2.23
2019-03-25T19:37:59.171Z,2.37
2019-03-25T19:40:50.853Z,4.50
2019-03-25T19:43:43.151Z,2.40
2019-03-25T19:46:34.972Z,1.83
2019-03-25T19:49:26.191Z,2.00
2019-03-25T19:52:17.869Z,2.53
2019-03-25T19:55:09.403Z,7.13
2019-03-25T19:58:01.468Z,2.20
2019-03-25T20:00:54.191Z,2.10
2019-03-25T20:03:45.391Z,2.50
2019-03-25T20:06:37.207Z,2.10
2019-03-25T20:09:35.001Z,3.20
2019-03-25T20:12:26.451Z,2.03
2019-03-25T20:15:18.750Z,2.40
2019-03-25T20:18:13.560Z,2.10
2019-03-25T20:21:06.950Z,2.43
2019-03-25T20:24:02.995Z,1.93
2019-03-25T20:26:58.667Z,3.20
2019-03-25T20:29:52.101Z,2.37
2019-03-25T20:32:44.222Z,2.63
2019-03-25T20:35:35.830Z,3.07
2019-03-25T20:38:27.595Z,3.70
2019-03-25T20:41:20.759Z,3.93
2019-03-25T20:44:11.792Z,3.27
2019-03-25T20:47:05.065Z,2.40
2019-03-25T20:49:56.776Z,2.90
2019-03-25T20:52:48.911Z,2.70
2019-03-25T20:55:40.740Z,2.87
2019-03-25T20:58:32.885Z,3.37
2019-03-25T21:01:24.398Z,2.63
2019-03-25T21:04:16.005Z,2.77
2019-03-25T21:07:08.283Z,2.43
2019-03-25T21:09:59.837Z,2.40
2019-03-25T21:12:52.898Z,2.17
2019-03-25T21:15:44.339Z,3.53
2019-03-25T21:18:35.699Z,3.67
2019-03-25T21:21:27.002Z,4.40
2019-03-25T21:24:18.719Z,1.90
2019-03-25T21:27:09.970Z,2.13
2019-03-25T21:30:01.453Z,2.20
2019-03-25T21:32:58.621Z,2.53
2019-03-25T21:35:47.032Z,2.20
2019-03-25T21:38:39.250Z,2.37
2019-03-25T21:41:30.486Z,7.23
2019-03-25T21:44:21.959Z,4.37
2019-03-25T21:47:13.238Z,2.87
2019-03-25T21:50:07.813Z,3.03
2019-03-25T21:52:59.281Z,2.60
2019-03-25T21:55:51.507Z,4.20
2019-03-25T21:58:43.497Z,2.93
2019-03-25T22:01:37.079Z,3.10
2019-03-25T22:04:28.911Z,3.03
2019-03-25T22:07:20.511Z,2.73
2019-03-25T22:10:12.251Z,2.50
2019-03-25T22:13:03.450Z,2.87
2019-03-25T22:15:55.172Z,3.83
2019-03-25T22:18:46.352Z,2.77
2019-03-25T22:21:37.711Z,2.80
2019-03-25T22:24:28.971Z,5.73
2019-03-25T22:27:19.898Z,3.03
2019-03-25T22:30:12.571Z,2.47
2019-03-25T22:33:03.811Z,1.97
2019-03-25T22:35:55.931Z,3.33
2019-03-25T22:38:46.930Z,4.47
2019-03-25T22:41:38.980Z,2.83
2019-03-25T22:44:30.951Z,3.17
2019-03-25T22:47:22.452Z,3.37
2019-03-25T22:50:27.971Z,2.97
2019-03-25T22:53:19.790Z,3.77
2019-03-25T22:56:11.531Z,2.43
2019-03-25T22:59:03.132Z,2.90
2019-03-25T23:01:55.291Z,3.00
2019-03-25T23:04:47.451Z,3.33
2019-03-25T23:07:39.616Z,3.00
2019-03-25T23:10:33.050Z,2.87
2019-03-25T23:13:25.330Z,5.17
2019-03-25T23:16:16.752Z,3.13
2019-03-25T23:19:08.891Z,2.80
2019-03-25T23:22:00.751Z,2.67
2019-03-25T23:24:51.930Z,4.63
2019-03-25T23:27:43.770Z,2.87
2019-03-25T23:30:35.611Z,3.43
2019-03-25T23:33:27.376Z,2.67
2019-03-25T23:36:19.631Z,3.50
2019-03-25T23:39:11.370Z,2.70
2019-03-25T23:42:03.511Z,2.40
2019-03-25T23:44:54.812Z,2.40
2019-03-25T23:47:45.440Z,2.83
2019-03-25T23:50:36.951Z,2.87
2019-03-25T23:53:29.892Z,4.97
2019-03-25T23:56:22.291Z,4.17
2019-03-25T23:59:13.990Z,2.70
